This is the latest recevied weather packets stored in our database for station/object OE5RPP. If no packets are shown the sender has not sent any weather packets the latest 10 day(s).
| Time | Temp. | Humidity | Pressure | Rain* | Wind** | Luminosity | Snow |
|---|---|---|---|---|---|---|---|
| 1788419831 | 20° C | 27% | 1025.9 hPa | 0 mm | - | - | - |
| 1788419233 | 19.44° C | 30% | 1025.9 hPa | 0 mm | - | - | - |
| 1788418633 | 18.89° C | 32% | 1025.9 hPa | 0 mm | - | - | - |
| 1788417431 | 17.22° C | 55% | 1025.9 hPa | 0 mm | - | - | - |
| 1788416831 | 17.22° C | 55% | 1025.9 hPa | 0 mm | - | - | - |
| 1788416232 | 16.67° C | 57% | 1025.9 hPa | 0 mm | - | - | - |
| 1788415632 | 16.11° C | 57% | 1025.9 hPa | 0 mm | - | - | - |
| 1788415032 | 15.56° C | 57% | 1025.9 hPa | 0 mm | - | - | - |
| 1788414432 | 15.56° C | 57% | 1025.9 hPa | 0 mm | - | - | - |
| 1788413831 | 15.56° C | 58% | 1024.9 hPa | 0 mm | - | - | - |
| 1788413231 | 15° C | 59% | 1024.9 hPa | 0 mm | - | - | - |
| 1788412632 | 14.44° C | 58% | 1024.9 hPa | 0 mm | - | - | - |
| 1788412032 | 14.44° C | 58% | 1024.9 hPa | 0 mm | - | - | - |
| 1788411432 | 15° C | 58% | 1024.9 hPa | 0 mm | - | - | - |
| 1788410831 | 15° C | 58% | 1024.9 hPa | 0 mm | - | - | - |
| 1788410233 | 14.44° C | 59% | 1024.9 hPa | 0 mm | - | - | - |
| 1788409633 | 14.44° C | 58% | 1024.9 hPa | 0 mm | - | - | - |
| 1788409032 | 14.44° C | 58% | 1024.9 hPa | 0 mm | - | - | - |
| 1788408431 | 14.44° C | 58% | 1024.9 hPa | 0 mm | - | - | - |
| 1788407831 | 14.44° C | 58% | 1024.9 hPa | 0 mm | - | - | - |
| 1788407232 | 14.44° C | 58% | 1024.9 hPa | 0 mm | - | - | - |
| 1788406632 | 14.44° C | 58% | 1024.9 hPa | 0 mm | - | - | - |
| 1788406032 | 15° C | 58% | 1024.9 hPa | 0 mm | - | - | - |
| 1788405431 | 15° C | 58% | 1024.9 hPa | 0 mm | - | - | - |
| 1788404832 | 15.56° C | 59% | 1024.9 hPa | 0 mm | - | - | - |
* Rain latest hour (hover to see other rain measurements)
** Current wind speed in m/s (hover to see current wind gust speed)